createdAt,value
2023-01-21T00:02:01.520Z,87.52
2023-01-21T00:04:29.803Z,87.70
2023-01-21T00:06:57.990Z,87.98
2023-01-21T00:09:26.302Z,88.49
2023-01-21T00:11:54.708Z,88.54
2023-01-21T00:14:23.003Z,88.01
2023-01-21T00:16:51.430Z,88.24
2023-01-21T00:19:19.883Z,87.96
2023-01-21T00:21:48.219Z,87.79
2023-01-21T00:24:16.802Z,87.77
2023-01-21T00:26:45.665Z,88.02
2023-01-21T00:29:14.209Z,87.96
2023-01-21T00:31:42.661Z,88.53
2023-01-21T00:34:11.456Z,88.56
2023-01-21T00:36:39.746Z,89.00
2023-01-21T00:39:08.189Z,88.92
2023-01-21T00:41:37.075Z,88.76
2023-01-21T00:44:06.400Z,88.55
2023-01-21T00:46:35.134Z,88.96
2023-01-21T00:49:03.807Z,88.82
2023-01-21T00:51:32.431Z,88.42
2023-01-21T00:54:00.981Z,88.66
2023-01-21T00:56:29.556Z,88.44
2023-01-21T00:58:58.307Z,88.62
2023-01-21T01:01:29.600Z,89.01
2023-01-21T01:03:57.823Z,89.36
2023-01-21T01:06:26.104Z,89.64
2023-01-21T01:08:57.669Z,89.79
2023-01-21T01:11:27.149Z,89.72
2023-01-21T01:13:56.012Z,89.45
2023-01-21T01:16:24.603Z,89.35
2023-01-21T01:18:52.996Z,89.60
2023-01-21T01:21:22.633Z,89.82
2023-01-21T01:23:52.973Z,89.96
2023-01-21T01:26:22.131Z,90.37
2023-01-21T01:28:50.595Z,90.63
2023-01-21T01:31:20.798Z,89.93
2023-01-21T01:33:49.792Z,89.96
2023-01-21T01:36:19.981Z,90.51
2023-01-21T01:38:48.404Z,90.44
2023-01-21T01:41:19.054Z,90.37
2023-01-21T01:43:54.434Z,89.88
2023-01-21T01:46:24.293Z,89.81
2023-01-21T01:48:58.774Z,89.75
2023-01-21T01:51:34.295Z,89.39
2023-01-21T01:54:04.154Z,89.59
2023-01-21T01:56:34.846Z,89.76
2023-01-21T01:59:03.480Z,90.33
2023-01-21T02:01:31.852Z,90.39
2023-01-21T02:04:06.242Z,89.89
2023-01-21T02:06:35.169Z,90.21
2023-01-21T02:09:03.820Z,89.99
2023-01-21T02:11:32.133Z,89.91
2023-01-21T02:14:00.608Z,89.93
2023-01-21T02:16:49.233Z,90.31
2023-01-21T02:19:41.271Z,90.25
2023-01-21T02:22:17.515Z,90.31
2023-01-21T02:25:27.372Z,89.91
2023-01-21T02:28:15.329Z,89.73
2023-01-21T02:31:13.282Z,89.80
2023-01-21T02:33:55.616Z,89.87
2023-01-21T02:36:54.211Z,90.26
2023-01-21T02:39:33.809Z,90.04
2023-01-21T02:42:09.879Z,89.76
2023-01-21T02:44:41.834Z,90.08
2023-01-21T02:47:19.019Z,89.73
2023-01-21T02:49:52.112Z,89.70
2023-01-21T02:52:22.089Z,89.44
2023-01-21T02:54:53.563Z,89.93
2023-01-21T02:57:42.700Z,89.92
2023-01-21T03:00:17.703Z,89.62
2023-01-21T03:03:35.351Z,89.64
2023-01-21T03:06:29.532Z,89.60
2023-01-21T03:09:04.193Z,89.29
2023-01-21T03:11:33.234Z,89.39
2023-01-21T03:14:32.641Z,89.80
2023-01-21T03:17:08.812Z,89.89
2023-01-21T03:19:41.940Z,89.93
2023-01-21T03:22:14.617Z,89.93
2023-01-21T03:24:43.320Z,89.77
2023-01-21T03:27:16.249Z,89.23
2023-01-21T03:29:46.658Z,89.51
2023-01-21T03:32:18.778Z,89.41
2023-01-21T03:34:51.351Z,88.94
2023-01-21T03:37:27.552Z,89.03
2023-01-21T03:40:04.804Z,89.05
2023-01-21T03:42:33.286Z,89.05
2023-01-21T03:45:02.379Z,88.97
2023-01-21T03:47:34.267Z,88.73
2023-01-21T03:50:08.156Z,88.61
2023-01-21T03:52:39.859Z,88.88
2023-01-21T03:55:10.458Z,88.98
2023-01-21T03:57:39.501Z,88.75
2023-01-21T04:00:12.656Z,88.49
2023-01-21T04:02:40.957Z,88.43
2023-01-21T04:05:10.724Z,88.64
2023-01-21T04:07:39.014Z,89.02
2023-01-21T04:10:11.051Z,89.31
2023-01-21T04:12:40.002Z,89.50
2023-01-21T04:15:11.111Z,89.62
2023-01-21T04:17:39.535Z,89.29
2023-01-21T04:20:11.003Z,89.02
2023-01-21T04:22:39.335Z,88.85
2023-01-21T04:25:08.367Z,88.61
2023-01-21T04:27:36.685Z,88.57
2023-01-21T04:30:07.788Z,88.28
2023-01-21T04:32:36.941Z,88.52
2023-01-21T04:35:06.988Z,89.08
2023-01-21T04:37:35.313Z,89.57
2023-01-21T04:40:04.671Z,89.65
2023-01-21T04:42:33.205Z,89.86
2023-01-21T04:45:01.594Z,89.58
2023-01-21T04:47:29.936Z,89.26
2023-01-21T04:49:58.305Z,89.44
2023-01-21T04:52:26.587Z,89.47
2023-01-21T04:54:54.855Z,89.38
2023-01-21T04:57:23.240Z,89.65
2023-01-21T04:59:51.538Z,89.42
2023-01-21T05:02:19.876Z,89.19
2023-01-21T05:04:48.295Z,89.08
2023-01-21T05:07:16.657Z,89.15
2023-01-21T05:09:44.993Z,89.36
2023-01-21T05:12:13.407Z,89.81
2023-01-21T05:14:41.911Z,89.79
2023-01-21T05:17:10.244Z,89.44
2023-01-21T05:19:38.580Z,89.34
2023-01-21T05:22:07.000Z,89.63
2023-01-21T05:24:35.302Z,89.59
2023-01-21T05:27:03.766Z,89.59
2023-01-21T05:29:32.148Z,89.29
2023-01-21T05:32:00.502Z,89.38
2023-01-21T05:34:28.960Z,89.56
2023-01-21T05:36:57.314Z,89.34
2023-01-21T05:39:25.710Z,89.15
2023-01-21T05:41:54.073Z,89.26
2023-01-21T05:44:22.485Z,89.26
2023-01-21T05:46:50.841Z,89.38
2023-01-21T05:49:19.425Z,89.31
2023-01-21T05:51:47.716Z,89.34
2023-01-21T05:54:16.301Z,89.35
2023-01-21T05:56:44.632Z,89.00
2023-01-21T05:59:13.189Z,88.75
2023-01-21T06:01:41.587Z,88.78
2023-01-21T06:04:09.882Z,88.79
2023-01-21T06:06:39.941Z,88.70
2023-01-21T06:09:08.777Z,89.03
2023-01-21T06:11:37.188Z,89.07
2023-01-21T06:14:05.571Z,89.24
2023-01-21T06:16:33.766Z,89.27
2023-01-21T06:19:02.075Z,89.16
2023-01-21T06:21:30.953Z,89.10
2023-01-21T06:24:00.038Z,89.11
2023-01-21T06:26:28.328Z,89.34
2023-01-21T06:28:56.995Z,89.28
2023-01-21T06:31:25.961Z,89.36
2023-01-21T06:33:54.677Z,89.39
2023-01-21T06:36:23.192Z,89.21
2023-01-21T06:38:51.520Z,89.26
2023-01-21T06:41:20.073Z,88.96
2023-01-21T06:43:48.456Z,89.33
2023-01-21T06:46:16.941Z,89.64
2023-01-21T06:48:45.397Z,89.59
2023-01-21T06:51:13.682Z,89.45
2023-01-21T06:53:42.215Z,89.61
2023-01-21T06:56:10.519Z,89.53
2023-01-21T06:58:39.269Z,89.45
2023-01-21T07:01:07.756Z,89.25
2023-01-21T07:03:36.128Z,89.41
2023-01-21T07:06:05.028Z,89.19
2023-01-21T07:08:33.837Z,89.14
2023-01-21T07:11:02.293Z,89.51
2023-01-21T07:13:30.516Z,89.35
2023-01-21T07:16:01.093Z,89.25
2023-01-21T07:18:29.737Z,89.25
2023-01-21T07:20:58.125Z,89.32
2023-01-21T07:23:26.580Z,89.18
2023-01-21T07:25:55.025Z,89.00
2023-01-21T07:28:23.384Z,89.12
2023-01-21T07:30:52.065Z,89.05
2023-01-21T07:33:20.823Z,88.98
2023-01-21T07:35:49.363Z,88.90
2023-01-21T07:38:18.124Z,88.69
2023-01-21T07:40:49.447Z,88.63
2023-01-21T07:43:18.978Z,88.63
2023-01-21T07:45:48.051Z,88.61
2023-01-21T07:48:17.045Z,88.47
2023-01-21T07:50:45.481Z,88.45
2023-01-21T07:53:14.011Z,88.06
2023-01-21T07:55:42.895Z,87.73
2023-01-21T07:58:11.253Z,87.58
2023-01-21T08:00:39.733Z,87.60
2023-01-21T08:03:08.481Z,87.49
2023-01-21T08:05:37.117Z,87.35
2023-01-21T08:08:05.650Z,87.51
2023-01-21T08:10:33.795Z,88.13
2023-01-21T08:13:03.111Z,88.15
2023-01-21T08:15:31.866Z,88.45
2023-01-21T08:18:00.451Z,88.16
2023-01-21T08:20:28.898Z,88.25
2023-01-21T08:23:00.904Z,88.09
2023-01-21T08:25:29.165Z,88.29
2023-01-21T08:27:59.355Z,88.18
2023-01-21T08:30:28.104Z,88.42
2023-01-21T08:32:56.676Z,88.08
2023-01-21T08:35:25.168Z,88.25
2023-01-21T08:37:56.673Z,88.80
2023-01-21T08:40:26.520Z,88.87
2023-01-21T08:42:58.892Z,88.76
2023-01-21T08:45:28.533Z,89.13
2023-01-21T08:47:57.260Z,89.62
2023-01-21T08:50:25.977Z,89.89
2023-01-21T08:52:55.966Z,90.66
2023-01-21T08:55:26.100Z,91.52
2023-01-21T08:57:55.144Z,91.61
2023-01-21T09:00:23.903Z,92.66
2023-01-21T09:02:53.259Z,92.80
2023-01-21T09:05:21.899Z,93.29
2023-01-21T09:07:50.398Z,93.82
2023-01-21T09:10:34.170Z,93.99
2023-01-21T09:13:05.328Z,94.47
2023-01-21T09:15:38.509Z,94.85
2023-01-21T09:18:07.092Z,95.10
2023-01-21T09:20:35.615Z,95.39
2023-01-21T09:23:23.378Z,95.84
2023-01-21T09:25:52.121Z,96.25
2023-01-21T09:28:22.465Z,96.84
2023-01-21T09:30:57.389Z,96.97
2023-01-21T09:33:26.812Z,97.04
2023-01-21T09:35:57.712Z,97.27
2023-01-21T09:38:29.624Z,96.98
2023-01-21T09:41:05.539Z,97.46
2023-01-21T09:43:42.377Z,97.94
2023-01-21T09:46:17.876Z,98.02
2023-01-21T09:48:49.560Z,98.45
2023-01-21T09:51:26.279Z,98.84
2023-01-21T09:53:59.015Z,99.20
2023-01-21T09:56:35.754Z,99.92
2023-01-21T09:59:15.779Z,100.00
2023-01-21T10:01:46.938Z,100.00
2023-01-21T10:04:34.419Z,100.00
2023-01-21T10:07:23.197Z,100.00
2023-01-21T10:10:01.342Z,100.00
2023-01-21T10:12:50.682Z,100.00
2023-01-21T10:15:45.254Z,100.00
2023-01-21T10:18:19.855Z,100.00
2023-01-21T10:20:55.757Z,100.00
2023-01-21T10:23:31.085Z,100.00
2023-01-21T10:26:07.463Z,100.00
2023-01-21T10:28:41.022Z,100.00
2023-01-21T10:31:20.598Z,100.00
2023-01-21T10:33:50.855Z,100.00
2023-01-21T10:36:42.573Z,100.00
2023-01-21T10:39:24.004Z,100.00
2023-01-21T10:42:25.889Z,100.00
2023-01-21T10:45:01.781Z,100.00
2023-01-21T10:47:37.800Z,100.00
2023-01-21T10:50:25.092Z,100.00
2023-01-21T10:53:02.136Z,100.00
2023-01-21T10:55:45.708Z,100.00
2023-01-21T10:58:25.098Z,100.00
2023-01-21T11:00:58.553Z,100.00
2023-01-21T11:03:38.091Z,100.00
2023-01-21T11:06:10.445Z,100.00
2023-01-21T11:08:43.685Z,100.00
2023-01-21T11:11:15.307Z,100.00
2023-01-21T11:13:45.290Z,100.00
2023-01-21T11:16:33.139Z,100.00
2023-01-21T11:19:03.169Z,100.00
2023-01-21T11:21:32.037Z,100.00
2023-01-21T11:24:02.960Z,100.00
2023-01-21T11:26:34.050Z,100.00
2023-01-21T11:29:12.416Z,100.00
2023-01-21T11:31:43.523Z,100.00
2023-01-21T11:34:15.217Z,100.00
2023-01-21T11:37:01.899Z,100.00
2023-01-21T11:39:32.990Z,100.00
2023-01-21T11:42:07.317Z,100.00
2023-01-21T11:44:36.232Z,100.00
2023-01-21T11:47:30.171Z,100.00
2023-01-21T11:50:10.836Z,100.00
2023-01-21T11:52:39.297Z,100.00
2023-01-21T11:55:20.646Z,100.00
2023-01-21T11:57:55.958Z,100.00
2023-01-21T12:00:27.139Z,100.00
2023-01-21T12:03:01.204Z,100.00
2023-01-21T12:05:34.179Z,100.00
2023-01-21T12:08:06.302Z,100.00
2023-01-21T12:10:42.545Z,100.00
2023-01-21T12:13:21.147Z,100.00
2023-01-21T12:16:18.367Z,100.00
2023-01-21T12:19:15.920Z,100.00
2023-01-21T12:22:00.060Z,100.00
2023-01-21T12:24:42.601Z,100.00
2023-01-21T12:27:23.722Z,100.00
2023-01-21T12:30:07.183Z,100.00
2023-01-21T12:32:42.249Z,100.00
2023-01-21T12:35:16.282Z,100.00
2023-01-21T12:37:50.574Z,100.00
2023-01-21T12:40:24.074Z,100.00
2023-01-21T12:42:57.213Z,100.00
2023-01-21T12:45:32.094Z,100.00
2023-01-21T12:48:04.487Z,100.00
2023-01-21T12:50:38.777Z,100.00
2023-01-21T12:53:18.025Z,100.00
2023-01-21T12:56:13.994Z,100.00
2023-01-21T12:58:48.734Z,100.00
2023-01-21T13:01:30.193Z,100.00
2023-01-21T13:04:06.629Z,100.00
2023-01-21T13:06:53.080Z,100.00
2023-01-21T13:09:35.273Z,100.00
2023-01-21T13:12:12.521Z,100.00
2023-01-21T13:14:46.758Z,100.00
2023-01-21T13:17:21.341Z,100.00
2023-01-21T13:19:50.018Z,100.00
2023-01-21T13:22:29.210Z,100.00
2023-01-21T13:25:12.282Z,100.00
2023-01-21T13:27:46.081Z,100.00
2023-01-21T13:30:26.187Z,100.00
2023-01-21T13:33:05.537Z,100.00
2023-01-21T13:35:43.913Z,100.00
2023-01-21T13:38:24.513Z,100.00
2023-01-21T13:41:00.043Z,100.00
2023-01-21T13:43:53.764Z,100.00
2023-01-21T13:46:39.504Z,100.00
2023-01-21T13:49:49.210Z,100.00
2023-01-21T13:52:24.538Z,100.00
2023-01-21T13:55:06.922Z,100.00
2023-01-21T13:58:01.022Z,100.00
2023-01-21T14:00:36.755Z,100.00
2023-01-21T14:03:17.620Z,100.00
2023-01-21T14:05:54.573Z,100.00
2023-01-21T14:08:28.959Z,100.00
2023-01-21T14:11:01.077Z,100.00
2023-01-21T14:14:15.838Z,100.00
2023-01-21T14:17:06.729Z,100.00
2023-01-21T14:19:55.293Z,100.00
2023-01-21T14:22:43.903Z,100.00
2023-01-21T14:25:23.124Z,100.00
2023-01-21T14:28:02.405Z,100.00
2023-01-21T14:30:39.550Z,100.00
2023-01-21T14:33:15.116Z,100.00
2023-01-21T14:35:48.699Z,100.00
2023-01-21T14:38:25.676Z,100.00
2023-01-21T14:41:06.782Z,100.00
2023-01-21T14:43:50.885Z,100.00
2023-01-21T14:46:29.145Z,100.00
2023-01-21T14:49:05.778Z,100.00
2023-01-21T14:51:36.959Z,100.00
2023-01-21T14:54:13.636Z,100.00
2023-01-21T14:56:53.058Z,100.00
2023-01-21T14:59:34.145Z,100.00
2023-01-21T15:02:18.046Z,100.00
2023-01-21T15:04:54.381Z,100.00
2023-01-21T15:07:28.091Z,100.00
2023-01-21T15:09:59.887Z,100.00
2023-01-21T15:12:31.287Z,100.00
2023-01-21T15:15:02.301Z,100.00
2023-01-21T15:18:03.178Z,100.00
2023-01-21T15:20:49.975Z,100.00
2023-01-21T15:23:35.425Z,100.00
2023-01-21T15:26:19.590Z,100.00
2023-01-21T15:28:51.249Z,100.00
2023-01-21T15:31:42.129Z,100.00
2023-01-21T15:34:15.926Z,100.00
2023-01-21T15:36:46.548Z,100.00
2023-01-21T15:39:17.209Z,100.00
2023-01-21T15:41:59.627Z,100.00
2023-01-21T15:44:42.061Z,100.00
2023-01-21T15:47:28.108Z,100.00
2023-01-21T15:50:03.467Z,100.00
2023-01-21T15:52:47.501Z,100.00
2023-01-21T15:55:28.224Z,100.00
2023-01-21T15:58:08.555Z,100.00
2023-01-21T16:00:46.689Z,100.00
2023-01-21T16:03:23.251Z,100.00
2023-01-21T16:06:01.031Z,100.00
2023-01-21T16:08:46.394Z,100.00
2023-01-21T16:11:28.487Z,100.00
2023-01-21T16:14:08.273Z,100.00
2023-01-21T16:16:50.688Z,100.00
2023-01-21T16:19:24.248Z,100.00
2023-01-21T16:21:57.180Z,100.00
2023-01-21T16:24:26.681Z,100.00
2023-01-21T16:27:15.867Z,100.00
2023-01-21T16:29:45.085Z,100.00
2023-01-21T16:32:21.106Z,100.00
2023-01-21T16:34:52.197Z,100.00
2023-01-21T16:37:25.238Z,100.00
2023-01-21T16:39:56.665Z,100.00
2023-01-21T16:42:33.485Z,100.00
2023-01-21T16:45:08.697Z,100.00
2023-01-21T16:47:37.369Z,100.00
2023-01-21T16:50:18.983Z,100.00
2023-01-21T16:52:48.169Z,100.00
2023-01-21T16:55:22.204Z,100.00
2023-01-21T16:57:52.171Z,100.00
2023-01-21T17:00:25.718Z,100.00
2023-01-21T17:02:55.505Z,100.00
2023-01-21T17:05:27.048Z,100.00
2023-01-21T17:07:59.268Z,100.00
2023-01-21T17:10:33.232Z,100.00
2023-01-21T17:13:04.781Z,100.00
2023-01-21T17:15:37.684Z,100.00
2023-01-21T17:18:18.139Z,100.00
2023-01-21T17:20:49.252Z,100.00
2023-01-21T17:23:21.150Z,100.00
2023-01-21T17:25:56.688Z,100.00
2023-01-21T17:28:30.741Z,100.00
2023-01-21T17:31:23.080Z,100.00
2023-01-21T17:34:06.700Z,100.00
2023-01-21T17:36:37.701Z,100.00
2023-01-21T17:39:08.088Z,100.00
2023-01-21T17:41:40.398Z,100.00
2023-01-21T17:44:15.646Z,100.00
2023-01-21T17:46:46.870Z,100.00
2023-01-21T17:49:19.968Z,100.00
2023-01-21T17:51:49.856Z,100.00
2023-01-21T17:54:21.813Z,100.00
2023-01-21T17:56:52.213Z,100.00
2023-01-21T17:59:34.602Z,100.00
2023-01-21T18:02:06.293Z,100.00
2023-01-21T18:04:35.279Z,100.00
2023-01-21T18:07:15.622Z,100.00
2023-01-21T18:09:44.634Z,100.00
2023-01-21T18:12:13.667Z,100.00
2023-01-21T18:14:43.228Z,100.00
2023-01-21T18:17:16.939Z,100.00
2023-01-21T18:19:46.523Z,100.00
2023-01-21T18:22:23.543Z,100.00
2023-01-21T18:24:52.755Z,100.00
2023-01-21T18:27:25.847Z,100.00
2023-01-21T18:29:57.219Z,100.00
2023-01-21T18:32:26.324Z,100.00
2023-01-21T18:34:56.336Z,100.00
2023-01-21T18:37:27.570Z,100.00
2023-01-21T18:39:58.018Z,100.00
2023-01-21T18:42:27.903Z,100.00
2023-01-21T18:44:57.227Z,100.00
2023-01-21T18:47:29.512Z,100.00
2023-01-21T18:50:02.998Z,100.00
2023-01-21T18:52:33.259Z,100.00
2023-01-21T18:55:02.334Z,100.00
2023-01-21T18:57:31.093Z,100.00
2023-01-21T18:59:59.742Z,100.00
2023-01-21T19:02:28.507Z,100.00
2023-01-21T19:04:57.028Z,100.00
2023-01-21T19:07:25.377Z,100.00
2023-01-21T19:09:54.971Z,100.00
2023-01-21T19:12:26.006Z,100.00
2023-01-21T19:14:57.787Z,100.00
2023-01-21T19:17:30.562Z,100.00
2023-01-21T19:19:58.142Z,100.00
2023-01-21T19:22:26.915Z,100.00
2023-01-21T19:24:55.996Z,100.00
2023-01-21T19:27:28.518Z,100.00
2023-01-21T19:29:57.675Z,100.00
2023-01-21T19:32:26.211Z,100.00
2023-01-21T19:34:57.027Z,100.00
2023-01-21T19:37:25.762Z,100.00
2023-01-21T19:39:54.300Z,100.00
2023-01-21T19:42:22.667Z,100.00
2023-01-21T19:44:51.545Z,100.00
2023-01-21T19:47:24.984Z,100.00
2023-01-21T19:49:53.447Z,100.00
2023-01-21T19:52:22.115Z,100.00
2023-01-21T19:54:50.566Z,100.00
2023-01-21T19:57:19.400Z,100.00
2023-01-21T19:59:49.835Z,100.00
2023-01-21T20:02:18.483Z,100.00
2023-01-21T20:04:47.025Z,100.00
2023-01-21T20:07:22.635Z,100.00
2023-01-21T20:09:52.809Z,100.00
2023-01-21T20:12:21.046Z,100.00
2023-01-21T20:14:49.512Z,100.00
2023-01-21T20:17:18.621Z,100.00
2023-01-21T20:19:47.158Z,100.00
2023-01-21T20:22:15.430Z,100.00
2023-01-21T20:24:44.018Z,100.00
2023-01-21T20:27:15.100Z,100.00
2023-01-21T20:29:55.693Z,100.00
2023-01-21T20:32:31.257Z,100.00
2023-01-21T20:35:02.637Z,100.00
2023-01-21T20:37:31.166Z,100.00
2023-01-21T20:39:59.842Z,100.00
2023-01-21T20:42:28.655Z,100.00
2023-01-21T20:44:57.103Z,100.00
2023-01-21T20:47:37.865Z,100.00
2023-01-21T20:50:17.738Z,100.00
2023-01-21T20:52:46.353Z,100.00
2023-01-21T20:55:20.568Z,100.00
2023-01-21T20:57:49.565Z,100.00
2023-01-21T21:00:21.565Z,100.00
2023-01-21T21:02:50.408Z,100.00
2023-01-21T21:05:19.727Z,100.00
2023-01-21T21:07:48.543Z,100.00
2023-01-21T21:10:21.974Z,100.00
2023-01-21T21:12:51.320Z,100.00
2023-01-21T21:15:20.735Z,100.00
2023-01-21T21:17:49.189Z,100.00
2023-01-21T21:20:20.742Z,100.00
2023-01-21T21:22:49.409Z,100.00
2023-01-21T21:25:20.690Z,100.00
2023-01-21T21:27:50.228Z,100.00
2023-01-21T21:30:21.117Z,100.00
2023-01-21T21:32:49.623Z,100.00
2023-01-21T21:35:26.120Z,100.00
2023-01-21T21:38:00.213Z,100.00
2023-01-21T21:40:29.182Z,100.00
2023-01-21T21:43:16.588Z,100.00
2023-01-21T21:46:00.046Z,100.00
2023-01-21T21:48:38.679Z,100.00
2023-01-21T21:51:09.443Z,100.00
2023-01-21T21:53:38.982Z,100.00
2023-01-21T21:56:09.812Z,100.00
2023-01-21T21:58:38.178Z,100.00
2023-01-21T22:01:11.964Z,100.00
2023-01-21T22:03:40.832Z,100.00
2023-01-21T22:06:10.811Z,100.00
2023-01-21T22:08:41.571Z,100.00
2023-01-21T22:11:14.371Z,100.00
2023-01-21T22:13:49.881Z,100.00
2023-01-21T22:16:20.822Z,100.00
2023-01-21T22:18:49.944Z,100.00
2023-01-21T22:21:20.800Z,100.00
2023-01-21T22:23:50.595Z,100.00
2023-01-21T22:26:21.014Z,100.00
2023-01-21T22:28:50.907Z,100.00
2023-01-21T22:31:21.515Z,100.00
2023-01-21T22:33:51.313Z,100.00
2023-01-21T22:36:22.042Z,100.00
2023-01-21T22:38:51.787Z,100.00
2023-01-21T22:41:22.781Z,100.00
2023-01-21T22:43:52.033Z,100.00
2023-01-21T22:46:23.841Z,100.00
2023-01-21T22:48:53.903Z,100.00
2023-01-21T22:51:23.441Z,100.00
2023-01-21T22:53:52.500Z,100.00
2023-01-21T22:56:31.419Z,100.00
2023-01-21T22:59:08.605Z,100.00
2023-01-21T23:01:37.426Z,100.00
2023-01-21T23:04:06.005Z,100.00
2023-01-21T23:06:36.813Z,100.00
2023-01-21T23:09:09.183Z,100.00
2023-01-21T23:11:40.837Z,100.00
2023-01-21T23:14:10.298Z,100.00
2023-01-21T23:16:39.340Z,100.00
2023-01-21T23:19:07.941Z,100.00
2023-01-21T23:21:37.621Z,100.00
2023-01-21T23:24:07.476Z,100.00
2023-01-21T23:26:36.544Z,100.00
2023-01-21T23:29:04.946Z,100.00
2023-01-21T23:31:33.921Z,100.00
2023-01-21T23:34:02.898Z,100.00
2023-01-21T23:36:31.859Z,100.00
2023-01-21T23:39:00.857Z,100.00
2023-01-21T23:41:29.461Z,100.00
2023-01-21T23:44:00.056Z,100.00
2023-01-21T23:46:28.600Z,100.00
2023-01-21T23:48:57.021Z,100.00
2023-01-21T23:51:25.699Z,100.00
2023-01-21T23:53:55.646Z,100.00
2023-01-21T23:56:26.717Z,100.00
2023-01-21T23:58:55.456Z,100.00
